sensor_id;sensor_type;location;lat;lon;timestamp;P1;P2;P0
30713;PMS7003;17465;47.934;33.430;2022-10-31T00:00:07;12.75;11.00;5.25
30713;PMS7003;17465;47.934;33.430;2022-10-31T00:02:38;15.00;13.25;8.75
30713;PMS7003;17465;47.934;33.430;2022-10-31T00:05:09;16.00;16.00;11.50
30713;PMS7003;17465;47.934;33.430;2022-10-31T00:07:39;18.75;18.75;10.25
30713;PMS7003;17465;47.934;33.430;2022-10-31T00:10:10;17.25;15.75;8.50
30713;PMS7003;17465;47.934;33.430;2022-10-31T00:12:41;13.75;13.00;8.75
30713;PMS7003;17465;47.934;33.430;2022-10-31T00:15:11;17.00;16.25;10.00
30713;PMS7003;17465;47.934;33.430;2022-10-31T00:17:42;15.75;15.00;9.00
30713;PMS7003;17465;47.934;33.430;2022-10-31T00:20:12;18.50;17.25;9.00
30713;PMS7003;17465;47.934;33.430;2022-10-31T00:22:43;15.25;12.00;8.00
30713;PMS7003;17465;47.934;33.430;2022-10-31T00:25:14;13.75;13.50;8.75
30713;PMS7003;17465;47.934;33.430;2022-10-31T00:27:45;16.75;14.75;9.00
30713;PMS7003;17465;47.934;33.430;2022-10-31T00:30:15;10.75;10.50;6.50
30713;PMS7003;17465;47.934;33.430;2022-10-31T00:32:45;16.25;15.75;9.25
30713;PMS7003;17465;47.934;33.430;2022-10-31T00:35:16;8.50;8.50;4.75
30713;PMS7003;17465;47.934;33.430;2022-10-31T00:37:46;17.25;15.50;8.75
30713;PMS7003;17465;47.934;33.430;2022-10-31T00:40:17;13.50;13.50;10.00
30713;PMS7003;17465;47.934;33.430;2022-10-31T00:42:47;16.50;15.50;10.50
30713;PMS7003;17465;47.934;33.430;2022-10-31T00:45:19;14.75;14.00;8.50
30713;PMS7003;17465;47.934;33.430;2022-10-31T00:47:49;10.75;10.75;6.00
30713;PMS7003;17465;47.934;33.430;2022-10-31T00:50:20;18.50;15.75;9.75
30713;PMS7003;17465;47.934;33.430;2022-10-31T00:52:50;14.75;12.25;5.75
30713;PMS7003;17465;47.934;33.430;2022-10-31T00:55:20;14.00;13.00;8.50
30713;PMS7003;17465;47.934;33.430;2022-10-31T00:57:51;19.00;17.50;9.75
30713;PMS7003;17465;47.934;33.430;2022-10-31T01:00:21;14.50;12.50;8.00
30713;PMS7003;17465;47.934;33.430;2022-10-31T01:02:52;16.00;15.00;8.75
30713;PMS7003;17465;47.934;33.430;2022-10-31T01:05:22;18.75;16.75;10.00
30713;PMS7003;17465;47.934;33.430;2022-10-31T01:07:53;16.75;16.00;9.25
30713;PMS7003;17465;47.934;33.430;2022-10-31T01:10:24;19.75;17.00;8.50
30713;PMS7003;17465;47.934;33.430;2022-10-31T01:12:54;21.25;21.25;11.25
30713;PMS7003;17465;47.934;33.430;2022-10-31T01:15:26;19.00;16.50;9.25
30713;PMS7003;17465;47.934;33.430;2022-10-31T01:17:57;17.50;16.75;10.75
30713;PMS7003;17465;47.934;33.430;2022-10-31T01:20:28;22.75;19.75;11.75
30713;PMS7003;17465;47.934;33.430;2022-10-31T01:22:59;17.75;17.75;10.25
30713;PMS7003;17465;47.934;33.430;2022-10-31T01:25:30;13.25;12.75;9.00
30713;PMS7003;17465;47.934;33.430;2022-10-31T01:28:00;23.25;20.25;13.25
30713;PMS7003;17465;47.934;33.430;2022-10-31T01:30:31;25.50;19.00;12.25
30713;PMS7003;17465;47.934;33.430;2022-10-31T01:33:02;17.75;17.00;9.75
30713;PMS7003;17465;47.934;33.430;2022-10-31T01:35:32;21.25;19.25;12.25
30713;PMS7003;17465;47.934;33.430;2022-10-31T01:38:03;20.00;19.75;11.00
30713;PMS7003;17465;47.934;33.430;2022-10-31T01:40:34;27.25;20.50;11.75
30713;PMS7003;17465;47.934;33.430;2022-10-31T01:43:04;23.75;20.25;10.25
30713;PMS7003;17465;47.934;33.430;2022-10-31T01:45:36;19.50;19.50;11.75
30713;PMS7003;17465;47.934;33.430;2022-10-31T01:48:09;10.00;10.00;1.25
30713;PMS7003;17465;47.934;33.430;2022-10-31T01:50:43;22.00;19.50;11.50
30713;PMS7003;17465;47.934;33.430;2022-10-31T01:53:16;26.00;19.00;10.75
30713;PMS7003;17465;47.934;33.430;2022-10-31T01:55:52;23.75;21.00;13.00
30713;PMS7003;17465;47.934;33.430;2022-10-31T01:58:22;22.75;19.50;12.00
30713;PMS7003;17465;47.934;33.430;2022-10-31T02:00:59;21.50;21.25;10.25
30713;PMS7003;17465;47.934;33.430;2022-10-31T02:03:32;18.25;18.25;11.00
30713;PMS7003;17465;47.934;33.430;2022-10-31T02:06:03;23.00;21.75;11.00
30713;PMS7003;17465;47.934;33.430;2022-10-31T02:08:37;20.00;20.00;11.75
30713;PMS7003;17465;47.934;33.430;2022-10-31T02:11:09;22.25;18.75;11.00
30713;PMS7003;17465;47.934;33.430;2022-10-31T02:13:40;23.50;21.50;14.00
30713;PMS7003;17465;47.934;33.430;2022-10-31T02:16:11;24.50;22.75;15.00
30713;PMS7003;17465;47.934;33.430;2022-10-31T02:18:42;22.00;22.00;11.50
30713;PMS7003;17465;47.934;33.430;2022-10-31T02:26:58;28.25;26.25;16.00
30713;PMS7003;17465;47.934;33.430;2022-10-31T02:32:27;22.00;18.25;11.00
30713;PMS7003;17465;47.934;33.430;2022-10-31T02:44:08;18.50;18.50;11.25
30713;PMS7003;17465;47.934;33.430;2022-10-31T02:46:55;13.00;11.00;5.00
30713;PMS7003;17465;47.934;33.430;2022-10-31T02:49:53;18.50;17.25;10.50
30713;PMS7003;17465;47.934;33.430;2022-10-31T02:52:27;15.00;15.00;9.50
30713;PMS7003;17465;47.934;33.430;2022-10-31T02:55:09;18.75;18.50;10.25
30713;PMS7003;17465;47.934;33.430;2022-10-31T02:57:42;22.50;20.25;11.00
30713;PMS7003;17465;47.934;33.430;2022-10-31T03:00:13;22.75;21.75;12.00
30713;PMS7003;17465;47.934;33.430;2022-10-31T03:02:53;26.00;24.25;14.00
30713;PMS7003;17465;47.934;33.430;2022-10-31T03:06:00;20.50;20.00;11.00
30713;PMS7003;17465;47.934;33.430;2022-10-31T03:08:54;16.75;16.75;8.00
30713;PMS7003;17465;47.934;33.430;2022-10-31T03:11:45;23.75;23.00;12.25
30713;PMS7003;17465;47.934;33.430;2022-10-31T03:14:20;21.25;18.00;9.75
30713;PMS7003;17465;47.934;33.430;2022-10-31T03:16:53;22.25;21.50;11.00
30713;PMS7003;17465;47.934;33.430;2022-10-31T03:19:35;21.25;18.25;11.25
30713;PMS7003;17465;47.934;33.430;2022-10-31T03:22:23;21.75;21.50;13.75
30713;PMS7003;17465;47.934;33.430;2022-10-31T03:24:57;23.25;20.75;11.75
30713;PMS7003;17465;47.934;33.430;2022-10-31T03:27:29;20.25;18.25;11.50
30713;PMS7003;17465;47.934;33.430;2022-10-31T03:30:04;22.75;21.25;12.75
30713;PMS7003;17465;47.934;33.430;2022-10-31T03:32:38;22.25;19.75;11.25
30713;PMS7003;17465;47.934;33.430;2022-10-31T03:35:09;18.00;16.00;10.00
30713;PMS7003;17465;47.934;33.430;2022-10-31T03:37:42;23.25;21.25;12.25
30713;PMS7003;17465;47.934;33.430;2022-10-31T03:40:13;16.25;16.25;11.25
30713;PMS7003;17465;47.934;33.430;2022-10-31T03:42:48;19.50;19.50;11.75
30713;PMS7003;17465;47.934;33.430;2022-10-31T03:45:21;19.75;17.25;10.75
30713;PMS7003;17465;47.934;33.430;2022-10-31T03:48:11;21.50;21.00;12.25
30713;PMS7003;17465;47.934;33.430;2022-10-31T03:50:49;53.25;44.00;26.25
30713;PMS7003;17465;47.934;33.430;2022-10-31T03:53:22;22.00;17.75;11.25
30713;PMS7003;17465;47.934;33.430;2022-10-31T03:56:06;13.25;13.00;6.00
30713;PMS7003;17465;47.934;33.430;2022-10-31T03:58:37;21.50;20.00;10.75
30713;PMS7003;17465;47.934;33.430;2022-10-31T04:01:09;17.75;16.00;9.00
30713;PMS7003;17465;47.934;33.430;2022-10-31T04:03:43;23.50;20.75;14.00
30713;PMS7003;17465;47.934;33.430;2022-10-31T04:06:15;18.75;18.75;11.50
30713;PMS7003;17465;47.934;33.430;2022-10-31T04:08:53;22.75;20.25;12.25
30713;PMS7003;17465;47.934;33.430;2022-10-31T04:11:25;19.75;19.25;9.50
30713;PMS7003;17465;47.934;33.430;2022-10-31T04:13:57;18.75;17.00;10.50
30713;PMS7003;17465;47.934;33.430;2022-10-31T04:16:30;21.50;18.00;11.25
30713;PMS7003;17465;47.934;33.430;2022-10-31T04:19:02;25.00;22.00;12.50
30713;PMS7003;17465;47.934;33.430;2022-10-31T04:21:34;20.75;19.00;10.75
30713;PMS7003;17465;47.934;33.430;2022-10-31T04:24:05;18.50;17.00;9.50
30713;PMS7003;17465;47.934;33.430;2022-10-31T04:26:37;19.75;19.75;12.00
30713;PMS7003;17465;47.934;33.430;2022-10-31T04:29:08;16.25;15.25;10.00
30713;PMS7003;17465;47.934;33.430;2022-10-31T04:31:39;21.25;19.00;13.00
30713;PMS7003;17465;47.934;33.430;2022-10-31T04:34:10;16.25;15.00;10.00
30713;PMS7003;17465;47.934;33.430;2022-10-31T04:36:41;23.75;20.75;13.00
30713;PMS7003;17465;47.934;33.430;2022-10-31T04:39:11;19.25;17.50;12.25
30713;PMS7003;17465;47.934;33.430;2022-10-31T04:41:42;18.75;15.50;5.50
30713;PMS7003;17465;47.934;33.430;2022-10-31T04:44:12;19.00;15.00;11.00
30713;PMS7003;17465;47.934;33.430;2022-10-31T04:46:43;21.75;20.50;12.00
30713;PMS7003;17465;47.934;33.430;2022-10-31T04:49:13;25.25;21.00;11.50
30713;PMS7003;17465;47.934;33.430;2022-10-31T04:51:44;20.25;19.50;10.25
30713;PMS7003;17465;47.934;33.430;2022-10-31T04:54:14;19.00;19.00;13.25
30713;PMS7003;17465;47.934;33.430;2022-10-31T04:56:44;21.00;17.25;11.00
30713;PMS7003;17465;47.934;33.430;2022-10-31T04:59:15;18.50;17.00;10.75
30713;PMS7003;17465;47.934;33.430;2022-10-31T05:01:46;18.00;16.50;11.50
30713;PMS7003;17465;47.934;33.430;2022-10-31T05:04:17;14.50;14.00;9.75
30713;PMS7003;17465;47.934;33.430;2022-10-31T05:06:51;18.25;17.00;9.00
30713;PMS7003;17465;47.934;33.430;2022-10-31T05:09:21;18.00;18.00;9.50
30713;PMS7003;17465;47.934;33.430;2022-10-31T05:12:11;15.75;14.75;9.25
30713;PMS7003;17465;47.934;33.430;2022-10-31T05:14:42;17.00;15.25;10.25
30713;PMS7003;17465;47.934;33.430;2022-10-31T05:17:15;15.75;15.50;8.50
30713;PMS7003;17465;47.934;33.430;2022-10-31T05:19:46;12.75;11.25;8.50
30713;PMS7003;17465;47.934;33.430;2022-10-31T05:22:16;22.25;20.75;10.75
30713;PMS7003;17465;47.934;33.430;2022-10-31T05:24:49;17.00;15.50;9.50
30713;PMS7003;17465;47.934;33.430;2022-10-31T05:27:20;16.50;16.50;8.75
30713;PMS7003;17465;47.934;33.430;2022-10-31T05:29:50;13.00;13.00;5.00
30713;PMS7003;17465;47.934;33.430;2022-10-31T05:32:21;10.00;9.75;6.00
30713;PMS7003;17465;47.934;33.430;2022-10-31T05:34:53;15.25;15.25;8.75
30713;PMS7003;17465;47.934;33.430;2022-10-31T05:37:23;17.50;13.25;7.00
30713;PMS7003;17465;47.934;33.430;2022-10-31T05:39:54;17.75;16.50;9.25
30713;PMS7003;17465;47.934;33.430;2022-10-31T05:42:24;17.25;16.25;9.25
30713;PMS7003;17465;47.934;33.430;2022-10-31T05:44:55;14.50;14.50;10.00
30713;PMS7003;17465;47.934;33.430;2022-10-31T05:47:26;14.50;14.50;8.50
30713;PMS7003;17465;47.934;33.430;2022-10-31T05:49:56;16.00;14.75;8.00
30713;PMS7003;17465;47.934;33.430;2022-10-31T05:52:26;12.50;12.50;8.50
30713;PMS7003;17465;47.934;33.430;2022-10-31T05:55:01;13.25;13.25;8.75
30713;PMS7003;17465;47.934;33.430;2022-10-31T05:57:32;15.00;13.25;8.00
30713;PMS7003;17465;47.934;33.430;2022-10-31T06:00:04;13.25;12.00;8.00
30713;PMS7003;17465;47.934;33.430;2022-10-31T06:02:36;11.00;11.00;7.25
30713;PMS7003;17465;47.934;33.430;2022-10-31T06:05:06;12.50;12.50;8.25
30713;PMS7003;17465;47.934;33.430;2022-10-31T06:07:38;12.25;12.25;6.75
30713;PMS7003;17465;47.934;33.430;2022-10-31T06:10:08;13.00;13.00;8.50
30713;PMS7003;17465;47.934;33.430;2022-10-31T06:12:40;15.00;12.50;8.00
30713;PMS7003;17465;47.934;33.430;2022-10-31T06:15:10;10.50;9.50;3.50
30713;PMS7003;17465;47.934;33.430;2022-10-31T06:17:41;9.75;9.75;5.00
30713;PMS7003;17465;47.934;33.430;2022-10-31T06:20:13;12.75;11.00;8.25
30713;PMS7003;17465;47.934;33.430;2022-10-31T06:22:44;15.25;14.00;9.00
30713;PMS7003;17465;47.934;33.430;2022-10-31T06:25:15;12.50;10.00;5.75
30713;PMS7003;17465;47.934;33.430;2022-10-31T06:27:46;12.75;12.75;8.00
30713;PMS7003;17465;47.934;33.430;2022-10-31T06:30:17;14.00;13.50;8.25
30713;PMS7003;17465;47.934;33.430;2022-10-31T06:32:49;8.75;8.00;3.00
30713;PMS7003;17465;47.934;33.430;2022-10-31T06:35:19;11.75;11.00;8.00
30713;PMS7003;17465;47.934;33.430;2022-10-31T06:37:53;10.75;10.75;6.50
30713;PMS7003;17465;47.934;33.430;2022-10-31T06:40:29;11.50;9.25;5.50
30713;PMS7003;17465;47.934;33.430;2022-10-31T06:42:56;11.00;11.00;7.00
30713;PMS7003;17465;47.934;33.430;2022-10-31T06:45:27;5.75;5.75;3.00
30713;PMS7003;17465;47.934;33.430;2022-10-31T06:47:58;12.50;12.50;8.50
30713;PMS7003;17465;47.934;33.430;2022-10-31T06:50:30;11.75;10.50;6.50
30713;PMS7003;17465;47.934;33.430;2022-10-31T06:53:01;9.25;8.75;5.25
30713;PMS7003;17465;47.934;33.430;2022-10-31T06:55:32;11.00;8.00;2.00
30713;PMS7003;17465;47.934;33.430;2022-10-31T06:58:02;9.50;9.50;5.50
30713;PMS7003;17465;47.934;33.430;2022-10-31T07:00:34;12.75;10.00;6.00
30713;PMS7003;17465;47.934;33.430;2022-10-31T07:03:24;14.25;12.75;8.50
30713;PMS7003;17465;47.934;33.430;2022-10-31T07:05:55;13.00;10.25;7.00
30713;PMS7003;17465;47.934;33.430;2022-10-31T07:08:28;11.75;11.50;8.00
30713;PMS7003;17465;47.934;33.430;2022-10-31T07:10:58;17.00;17.00;11.50
30713;PMS7003;17465;47.934;33.430;2022-10-31T07:13:29;23.00;22.50;17.25
30713;PMS7003;17465;47.934;33.430;2022-10-31T07:16:01;12.00;12.00;8.50
30713;PMS7003;17465;47.934;33.430;2022-10-31T07:18:35;17.00;15.00;9.50
30713;PMS7003;17465;47.934;33.430;2022-10-31T07:21:06;10.00;10.00;6.00
30713;PMS7003;17465;47.934;33.430;2022-10-31T07:23:37;13.00;10.75;6.00
30713;PMS7003;17465;47.934;33.430;2022-10-31T07:26:07;11.25;10.00;4.50
30713;PMS7003;17465;47.934;33.430;2022-10-31T07:28:39;8.75;8.25;4.75
30713;PMS7003;17465;47.934;33.430;2022-10-31T07:31:09;4.00;4.00;2.00
30713;PMS7003;17465;47.934;33.430;2022-10-31T07:33:40;6.75;6.75;4.00
30713;PMS7003;17465;47.934;33.430;2022-10-31T07:36:12;11.00;10.00;5.50
30713;PMS7003;17465;47.934;33.430;2022-10-31T07:38:45;10.00;10.00;7.75
30713;PMS7003;17465;47.934;33.430;2022-10-31T07:41:16;10.25;10.25;5.00
30713;PMS7003;17465;47.934;33.430;2022-10-31T07:43:46;10.75;8.75;4.00
30713;PMS7003;17465;47.934;33.430;2022-10-31T07:46:17;8.00;6.00;4.00
30713;PMS7003;17465;47.934;33.430;2022-10-31T07:48:51;7.00;5.50;3.00
30713;PMS7003;17465;47.934;33.430;2022-10-31T07:51:21;4.00;4.00;2.25
30713;PMS7003;17465;47.934;33.430;2022-10-31T07:53:52;4.50;4.00;3.00
30713;PMS7003;17465;47.934;33.430;2022-10-31T07:56:22;5.00;5.00;3.75
30713;PMS7003;17465;47.934;33.430;2022-10-31T07:58:53;7.75;7.75;3.75
30713;PMS7003;17465;47.934;33.430;2022-10-31T08:01:28;4.00;4.00;2.00
30713;PMS7003;17465;47.934;33.430;2022-10-31T08:04:00;2.75;2.75;1.00
30713;PMS7003;17465;47.934;33.430;2022-10-31T08:06:33;3.00;3.00;1.00
30713;PMS7003;17465;47.934;33.430;2022-10-31T08:09:05;4.75;3.00;1.00
30713;PMS7003;17465;47.934;33.430;2022-10-31T08:11:38;2.00;2.00;1.00
30713;PMS7003;17465;47.934;33.430;2022-10-31T08:14:11;2.00;1.00;1.00
30713;PMS7003;17465;47.934;33.430;2022-10-31T08:16:43;3.00;3.00;1.75
30713;PMS7003;17465;47.934;33.430;2022-10-31T08:19:13;1.75;1.00;0.75
30713;PMS7003;17465;47.934;33.430;2022-10-31T08:21:43;3.00;3.00;1.00
30713;PMS7003;17465;47.934;33.430;2022-10-31T08:24:14;4.00;3.00;1.25
30713;PMS7003;17465;47.934;33.430;2022-10-31T08:26:46;2.00;2.00;1.00
30713;PMS7003;17465;47.934;33.430;2022-10-31T08:29:16;3.00;3.00;1.00
30713;PMS7003;17465;47.934;33.430;2022-10-31T08:31:47;3.00;2.25;1.00
30713;PMS7003;17465;47.934;33.430;2022-10-31T08:34:17;2.00;2.00;1.00
30713;PMS7003;17465;47.934;33.430;2022-10-31T08:36:48;2.00;2.00;1.25
30713;PMS7003;17465;47.934;33.430;2022-10-31T08:39:22;1.00;1.00;0.00
30713;PMS7003;17465;47.934;33.430;2022-10-31T08:41:53;1.80;1.80;0.40
30713;PMS7003;17465;47.934;33.430;2022-10-31T08:44:23;6.00;6.00;2.00
30713;PMS7003;17465;47.934;33.430;2022-10-31T08:46:54;1.00;1.00;0.20
30713;PMS7003;17465;47.934;33.430;2022-10-31T08:49:25;4.00;2.50;1.50
30713;PMS7003;17465;47.934;33.430;2022-10-31T08:51:55;2.00;2.00;0.00
30713;PMS7003;17465;47.934;33.430;2022-10-31T08:54:26;3.00;3.00;2.40
30713;PMS7003;17465;47.934;33.430;2022-10-31T08:56:57;3.40;3.40;1.60
30713;PMS7003;17465;47.934;33.430;2022-10-31T08:59:32;2.80;2.00;1.00
30713;PMS7003;17465;47.934;33.430;2022-10-31T09:02:08;3.80;2.60;0.60
30713;PMS7003;17465;47.934;33.430;2022-10-31T09:04:37;3.80;2.00;1.00
30713;PMS7003;17465;47.934;33.430;2022-10-31T09:07:17;1.40;1.40;0.80
30713;PMS7003;17465;47.934;33.430;2022-10-31T09:09:49;1.75;1.00;1.00
30713;PMS7003;17465;47.934;33.430;2022-10-31T09:12:20;1.80;1.80;1.00
30713;PMS7003;17465;47.934;33.430;2022-10-31T09:14:52;1.25;1.25;1.00
30713;PMS7003;17465;47.934;33.430;2022-10-31T09:17:22;2.00;2.00;1.00
30713;PMS7003;17465;47.934;33.430;2022-10-31T09:19:53;1.60;1.60;0.00
30713;PMS7003;17465;47.934;33.430;2022-10-31T09:22:23;1.20;1.20;1.00
30713;PMS7003;17465;47.934;33.430;2022-10-31T09:24:54;1.00;1.00;0.40
30713;PMS7003;17465;47.934;33.430;2022-10-31T09:27:24;2.20;2.00;0.00
30713;PMS7003;17465;47.934;33.430;2022-10-31T09:29:56;1.60;1.00;0.00
30713;PMS7003;17465;47.934;33.430;2022-10-31T09:32:27;5.00;2.00;1.00
30713;PMS7003;17465;47.934;33.430;2022-10-31T09:34:58;2.00;2.00;1.00
30713;PMS7003;17465;47.934;33.430;2022-10-31T09:37:29;1.60;1.60;0.00
30713;PMS7003;17465;47.934;33.430;2022-10-31T09:39:59;2.00;2.00;0.20
30713;PMS7003;17465;47.934;33.430;2022-10-31T09:45:34;0.40;0.40;0.20
30713;PMS7003;17465;47.934;33.430;2022-10-31T09:50:41;2.00;2.00;1.00
30713;PMS7003;17465;47.934;33.430;2022-10-31T09:53:22;1.25;1.25;1.00
30713;PMS7003;17465;47.934;33.430;2022-10-31T09:56:19;1.25;1.25;0.00
30713;PMS7003;17465;47.934;33.430;2022-10-31T09:58:59;2.00;1.50;1.00
30713;PMS7003;17465;47.934;33.430;2022-10-31T10:06:52;2.00;2.00;1.00
30713;PMS7003;17465;47.934;33.430;2022-10-31T10:09:25;1.00;1.00;0.00
30713;PMS7003;17465;47.934;33.430;2022-10-31T10:12:16;2.50;1.50;1.00
30713;PMS7003;17465;47.934;33.430;2022-10-31T10:17:50;1.00;1.00;0.00
30713;PMS7003;17465;47.934;33.430;2022-10-31T10:23:52;0.00;0.00;0.00
30713;PMS7003;17465;47.934;33.430;2022-10-31T10:26:36;3.25;2.75;1.00
30713;PMS7003;17465;47.934;33.430;2022-10-31T10:31:57;1.00;1.00;0.50
30713;PMS7003;17465;47.934;33.430;2022-10-31T10:34:41;1.00;1.00;0.00
30713;PMS7003;17465;47.934;33.430;2022-10-31T10:37:34;2.00;1.00;0.00
30713;PMS7003;17465;47.934;33.430;2022-10-31T10:40:08;1.00;0.00;0.00
30713;PMS7003;17465;47.934;33.430;2022-10-31T10:45:57;2.00;1.25;0.50
30713;PMS7003;17465;47.934;33.430;2022-10-31T10:54:31;2.00;1.00;0.00
30713;PMS7003;17465;47.934;33.430;2022-10-31T10:59:42;0.25;0.25;0.00
30713;PMS7003;17465;47.934;33.430;2022-10-31T11:02:17;0.50;0.00;0.00
30713;PMS7003;17465;47.934;33.430;2022-10-31T11:04:52;0.75;0.75;0.00
30713;PMS7003;17465;47.934;33.430;2022-10-31T11:07:25;1.00;0.00;0.00
30713;PMS7003;17465;47.934;33.430;2022-10-31T11:10:04;0.00;0.00;0.00
30713;PMS7003;17465;47.934;33.430;2022-10-31T11:12:37;0.00;0.00;0.00
30713;PMS7003;17465;47.934;33.430;2022-10-31T11:15:18;0.00;0.00;0.00
30713;PMS7003;17465;47.934;33.430;2022-10-31T11:17:52;1.00;1.00;0.50
30713;PMS7003;17465;47.934;33.430;2022-10-31T11:20:28;2.00;0.75;0.00
30713;PMS7003;17465;47.934;33.430;2022-10-31T11:23:19;2.00;2.00;1.00
30713;PMS7003;17465;47.934;33.430;2022-10-31T11:25:56;1.00;1.00;0.00
30713;PMS7003;17465;47.934;33.430;2022-10-31T11:28:28;3.75;1.00;0.00
30713;PMS7003;17465;47.934;33.430;2022-10-31T11:31:01;2.00;1.00;0.00
30713;PMS7003;17465;47.934;33.430;2022-10-31T11:33:39;1.50;1.00;0.00
30713;PMS7003;17465;47.934;33.430;2022-10-31T11:36:27;1.25;1.25;0.75
30713;PMS7003;17465;47.934;33.430;2022-10-31T11:39:00;1.00;1.00;0.00
30713;PMS7003;17465;47.934;33.430;2022-10-31T11:41:34;1.00;1.00;0.00
30713;PMS7003;17465;47.934;33.430;2022-10-31T11:44:16;1.75;1.75;0.00
30713;PMS7003;17465;47.934;33.430;2022-10-31T11:46:51;0.75;0.75;0.00
30713;PMS7003;17465;47.934;33.430;2022-10-31T11:49:30;0.00;0.00;0.00
30713;PMS7003;17465;47.934;33.430;2022-10-31T11:52:08;2.00;1.00;0.00
30713;PMS7003;17465;47.934;33.430;2022-10-31T11:57:48;2.00;2.00;0.00
30713;PMS7003;17465;47.934;33.430;2022-10-31T12:00:39;2.00;2.00;0.75
30713;PMS7003;17465;47.934;33.430;2022-10-31T12:06:06;0.00;0.00;0.00
30713;PMS7003;17465;47.934;33.430;2022-10-31T12:08:49;3.50;3.00;1.25
30713;PMS7003;17465;47.934;33.430;2022-10-31T12:22:45;1.00;1.00;0.00
30713;PMS7003;17465;47.934;33.430;2022-10-31T12:25:43;1.75;0.75;0.00
30713;PMS7003;17465;47.934;33.430;2022-10-31T12:28:39;0.00;0.00;0.00
30713;PMS7003;17465;47.934;33.430;2022-10-31T12:45:54;1.00;1.00;1.00
30713;PMS7003;17465;47.934;33.430;2022-10-31T12:54:45;1.00;0.75;0.00
30713;PMS7003;17465;47.934;33.430;2022-10-31T12:57:35;0.00;0.00;0.00
30713;PMS7003;17465;47.934;33.430;2022-10-31T13:00:11;0.25;0.25;0.00
30713;PMS7003;17465;47.934;33.430;2022-10-31T13:03:28;0.75;0.75;0.00
30713;PMS7003;17465;47.934;33.430;2022-10-31T13:05:30;2.00;2.00;1.00
30713;PMS7003;17465;47.934;33.430;2022-10-31T13:11:35;2.00;0.00;0.00
30713;PMS7003;17465;47.934;33.430;2022-10-31T13:16:12;1.00;1.00;0.00
30713;PMS7003;17465;47.934;33.430;2022-10-31T13:18:53;5.00;5.00;3.00
30713;PMS7003;17465;47.934;33.430;2022-10-31T13:21:36;5.25;3.75;1.00
30713;PMS7003;17465;47.934;33.430;2022-10-31T13:24:13;3.25;3.25;1.75
30713;PMS7003;17465;47.934;33.430;2022-10-31T13:26:56;1.75;1.75;0.50
30713;PMS7003;17465;47.934;33.430;2022-10-31T13:32:56;2.75;2.75;1.50
30713;PMS7003;17465;47.934;33.430;2022-10-31T13:38:37;0.00;0.00;0.00
30713;PMS7003;17465;47.934;33.430;2022-10-31T13:49:23;1.00;1.00;0.00
30713;PMS7003;17465;47.934;33.430;2022-10-31T13:54:58;0.00;0.00;0.00
30713;PMS7003;17465;47.934;33.430;2022-10-31T13:57:38;3.00;3.00;1.00
30713;PMS7003;17465;47.934;33.430;2022-10-31T14:03:02;0.00;0.00;0.00
30713;PMS7003;17465;47.934;33.430;2022-10-31T14:05:37;1.25;1.25;0.00
30713;PMS7003;17465;47.934;33.430;2022-10-31T14:08:15;0.00;0.00;0.00
30713;PMS7003;17465;47.934;33.430;2022-10-31T14:10:59;0.75;0.75;0.00
30713;PMS7003;17465;47.934;33.430;2022-10-31T14:13:31;0.75;0.75;0.00
30713;PMS7003;17465;47.934;33.430;2022-10-31T14:16:18;1.00;1.00;0.00
30713;PMS7003;17465;47.934;33.430;2022-10-31T14:18:57;2.00;1.25;0.00
30713;PMS7003;17465;47.934;33.430;2022-10-31T14:21:47;4.00;4.00;2.00
30713;PMS7003;17465;47.934;33.430;2022-10-31T14:27:34;3.00;3.00;1.75
30713;PMS7003;17465;47.934;33.430;2022-10-31T14:29:52;2.00;2.00;1.00
30713;PMS7003;17465;47.934;33.430;2022-10-31T14:32:24;1.75;1.75;0.75
30713;PMS7003;17465;47.934;33.430;2022-10-31T14:34:56;4.25;4.25;2.25
30713;PMS7003;17465;47.934;33.430;2022-10-31T14:49:07;7.75;6.50;2.75
30713;PMS7003;17465;47.934;33.430;2022-10-31T14:51:52;7.25;3.25;1.50
30713;PMS7003;17465;47.934;33.430;2022-10-31T14:54:30;2.50;2.50;1.00
30713;PMS7003;17465;47.934;33.430;2022-10-31T14:57:13;3.00;3.00;1.00
30713;PMS7003;17465;47.934;33.430;2022-10-31T15:00:07;4.50;2.25;1.00
30713;PMS7003;17465;47.934;33.430;2022-10-31T15:05:27;10.00;9.75;4.00
30713;PMS7003;17465;47.934;33.430;2022-10-31T15:07:59;9.25;7.25;4.00
30713;PMS7003;17465;47.934;33.430;2022-10-31T15:10:35;6.00;6.00;3.00
30713;PMS7003;17465;47.934;33.430;2022-10-31T15:13:10;8.25;8.25;2.75
30713;PMS7003;17465;47.934;33.430;2022-10-31T15:15:45;9.25;8.25;3.75
30713;PMS7003;17465;47.934;33.430;2022-10-31T15:18:24;6.75;5.00;2.25
30713;PMS7003;17465;47.934;33.430;2022-10-31T15:20:52;4.25;4.00;2.25
30713;PMS7003;17465;47.934;33.430;2022-10-31T15:23:26;3.25;2.50;0.25
30713;PMS7003;17465;47.934;33.430;2022-10-31T15:25:59;5.00;3.75;2.00
30713;PMS7003;17465;47.934;33.430;2022-10-31T15:28:31;5.50;5.50;2.75
30713;PMS7003;17465;47.934;33.430;2022-10-31T15:31:02;2.75;2.75;1.00
30713;PMS7003;17465;47.934;33.430;2022-10-31T15:33:39;2.00;2.00;1.00
30713;PMS7003;17465;47.934;33.430;2022-10-31T15:36:22;2.00;2.00;1.00
30713;PMS7003;17465;47.934;33.430;2022-10-31T15:38:56;2.50;1.75;1.00
30713;PMS7003;17465;47.934;33.430;2022-10-31T15:41:28;5.00;2.25;1.00
30713;PMS7003;17465;47.934;33.430;2022-10-31T15:44:06;3.00;3.00;1.00
30713;PMS7003;17465;47.934;33.430;2022-10-31T15:46:42;2.00;2.00;1.00
30713;PMS7003;17465;47.934;33.430;2022-10-31T15:49:23;3.50;3.50;1.25
30713;PMS7003;17465;47.934;33.430;2022-10-31T15:52:08;2.25;2.25;0.00
30713;PMS7003;17465;47.934;33.430;2022-10-31T15:54:47;3.00;3.00;1.00
30713;PMS7003;17465;47.934;33.430;2022-10-31T15:57:22;3.25;2.50;1.50
30713;PMS7003;17465;47.934;33.430;2022-10-31T15:59:54;2.00;2.00;1.00
30713;PMS7003;17465;47.934;33.430;2022-10-31T16:02:26;3.00;3.00;1.00
30713;PMS7003;17465;47.934;33.430;2022-10-31T16:05:00;3.00;2.25;1.00
30713;PMS7003;17465;47.934;33.430;2022-10-31T16:07:32;4.25;4.25;2.50
30713;PMS7003;17465;47.934;33.430;2022-10-31T16:10:03;2.00;1.75;0.75
30713;PMS7003;17465;47.934;33.430;2022-10-31T16:12:44;4.00;2.75;1.00
30713;PMS7003;17465;47.934;33.430;2022-10-31T16:15:12;4.25;3.25;1.50
30713;PMS7003;17465;47.934;33.430;2022-10-31T16:17:47;3.00;2.25;1.00
30713;PMS7003;17465;47.934;33.430;2022-10-31T16:20:27;3.50;3.50;2.00
30713;PMS7003;17465;47.934;33.430;2022-10-31T16:22:58;3.50;2.00;0.75
30713;PMS7003;17465;47.934;33.430;2022-10-31T16:25:34;3.50;2.75;1.50
30713;PMS7003;17465;47.934;33.430;2022-10-31T16:28:13;4.50;3.00;1.00
30713;PMS7003;17465;47.934;33.430;2022-10-31T16:30:49;3.50;3.00;1.00
30713;PMS7003;17465;47.934;33.430;2022-10-31T16:39:00;1.50;1.50;1.00
30713;PMS7003;17465;47.934;33.430;2022-10-31T16:41:31;0.50;0.50;0.00
30713;PMS7003;17465;47.934;33.430;2022-10-31T16:44:26;6.75;4.00;1.75
30713;PMS7003;17465;47.934;33.430;2022-10-31T16:47:09;2.00;2.00;1.00
30713;PMS7003;17465;47.934;33.430;2022-10-31T16:49:44;2.00;1.00;0.00
30713;PMS7003;17465;47.934;33.430;2022-10-31T16:52:16;2.00;1.50;1.00